createdAt,value
2019-01-25T00:04:24.648Z,-2.85
2019-01-25T00:09:26.961Z,-2.92
2019-01-25T00:14:29.380Z,-2.93
2019-01-25T00:19:31.503Z,-2.95
2019-01-25T00:24:33.495Z,-3.00
2019-01-25T00:29:35.869Z,-2.98
2019-01-25T00:34:37.932Z,-3.04
2019-01-25T00:39:39.952Z,-3.00
2019-01-25T00:44:42.253Z,-3.06
2019-01-25T00:49:44.498Z,-2.93
2019-01-25T00:54:46.889Z,-2.99
2019-01-25T00:59:48.971Z,-2.96
2019-01-25T01:04:51.005Z,-2.93
2019-01-25T01:09:53.065Z,-2.95
2019-01-25T01:14:55.067Z,-3.01
2019-01-25T01:19:57.193Z,-2.99
2019-01-25T01:24:59.216Z,-2.98
2019-01-25T01:30:01.279Z,-2.94
2019-01-25T01:35:25.740Z,-2.99
2019-01-25T01:40:27.800Z,-2.97
2019-01-25T01:45:29.832Z,-2.95
2019-01-25T01:50:32.255Z,-3.00
2019-01-25T01:55:34.332Z,-2.98
2019-01-25T02:00:36.565Z,-2.96
2019-01-25T02:05:39.006Z,-2.94
2019-01-25T02:10:41.059Z,-2.92
2019-01-25T02:15:43.032Z,-2.91
2019-01-25T02:20:45.064Z,-2.93
2019-01-25T02:25:47.551Z,-2.89
2019-01-25T02:30:49.584Z,-2.93
2019-01-25T02:35:51.559Z,-2.87
2019-01-25T02:40:53.606Z,-2.86
2019-01-25T02:46:15.142Z,-2.85
2019-01-25T02:51:17.155Z,-2.78
2019-01-25T02:56:19.223Z,-2.79
2019-01-25T03:01:21.279Z,-2.80
2019-01-25T03:06:23.325Z,-2.75
2019-01-25T03:11:25.420Z,-2.78
2019-01-25T03:16:27.486Z,-2.70
2019-01-25T03:21:29.477Z,-2.70
2019-01-25T03:26:31.928Z,-2.71
2019-01-25T03:31:34.286Z,-2.72
2019-01-25T03:36:36.311Z,-2.66
2019-01-25T03:41:38.371Z,-2.71
2019-01-25T03:46:40.706Z,-2.77
2019-01-25T03:51:43.102Z,-2.70
2019-01-25T03:56:45.159Z,-2.72
2019-01-25T04:01:47.212Z,-2.67
2019-01-25T04:06:49.250Z,-2.74
2019-01-25T04:11:51.680Z,-2.72
2019-01-25T04:16:53.708Z,-2.72
2019-01-25T04:21:56.094Z,-2.70
2019-01-25T04:26:58.112Z,-2.69
2019-01-25T04:32:00.146Z,-2.66
2019-01-25T04:37:02.176Z,-2.67
2019-01-25T04:42:04.589Z,-2.71
2019-01-25T04:47:06.967Z,-2.71
2019-01-25T04:52:28.452Z,-2.71
2019-01-25T04:57:30.502Z,-2.72
2019-01-25T05:02:32.541Z,-2.67
2019-01-25T05:07:34.697Z,-2.58
2019-01-25T05:12:36.800Z,-2.66
2019-01-25T05:17:38.823Z,-2.67
2019-01-25T05:22:41.219Z,-2.68
2019-01-25T05:27:43.292Z,-2.76
2019-01-25T05:32:45.550Z,-2.73
2019-01-25T05:37:47.658Z,-2.74
2019-01-25T05:42:49.688Z,-2.76
2019-01-25T05:47:51.723Z,-2.80
2019-01-25T05:52:53.737Z,-2.78
2019-01-25T05:58:15.206Z,-2.85
2019-01-25T06:03:17.319Z,-2.85
2019-01-25T06:08:43.882Z,-2.85
2019-01-25T06:13:44.002Z,-2.84
2019-01-25T06:18:46.040Z,-2.88
2019-01-25T06:24:28.876Z,-2.96
2019-01-25T06:29:33.173Z,-2.93
2019-01-25T06:34:35.503Z,-2.84
2019-01-25T06:39:37.563Z,-2.84
2019-01-25T06:44:39.663Z,-2.87
2019-01-25T06:49:41.913Z,-2.83
2019-01-25T06:54:44.168Z,-2.85
2019-01-25T06:59:46.249Z,-2.90
2019-01-25T07:04:48.634Z,-2.83
2019-01-25T07:09:50.845Z,-2.83
2019-01-25T07:14:52.927Z,-2.90
2019-01-25T07:19:54.961Z,-2.87
2019-01-25T07:24:57.473Z,-2.90
2019-01-25T07:30:01.088Z,-2.89
2019-01-25T07:35:44.150Z,-2.95
2019-01-25T07:40:46.456Z,-2.81
2019-01-25T07:45:48.617Z,-2.90
2019-01-25T07:50:50.687Z,-2.79
2019-01-25T07:55:52.709Z,-2.85
2019-01-25T08:00:54.789Z,-2.86
2019-01-25T08:05:56.799Z,-2.88
2019-01-25T08:10:58.830Z,-2.83
2019-01-25T08:16:01.150Z,-2.78
2019-01-25T08:21:03.292Z,-2.77
2019-01-25T08:26:05.723Z,-2.79
2019-01-25T08:31:07.698Z,-2.72
2019-01-25T08:36:09.926Z,-2.57
2019-01-25T08:41:12.022Z,-2.23
2019-01-25T08:46:14.111Z,-2.60
2019-01-25T08:51:16.581Z,-2.57
2019-01-25T08:56:18.771Z,-2.55
2019-01-25T09:01:20.707Z,-2.62
2019-01-25T09:06:22.784Z,-2.55
2019-01-25T09:11:24.893Z,-2.52
2019-01-25T09:16:26.977Z,-2.53
2019-01-25T09:21:29.038Z,-2.49
2019-01-25T09:26:31.120Z,-2.31
2019-01-25T09:31:33.328Z,-2.34
2019-01-25T09:36:35.328Z,-2.46
2019-01-25T09:41:37.512Z,-2.49
2019-01-25T09:46:40.158Z,-2.46
2019-01-25T09:51:42.186Z,-2.33
2019-01-25T09:56:44.231Z,-2.29
2019-01-25T10:01:46.487Z,-2.35
2019-01-25T10:06:48.586Z,-2.35
2019-01-25T10:11:50.562Z,-2.16
2019-01-25T10:16:52.666Z,-2.18
2019-01-25T10:21:55.507Z,-2.09
2019-01-25T10:26:57.573Z,-2.04
2019-01-25T10:31:59.730Z,-1.89
2019-01-25T10:37:02.021Z,-2.11
2019-01-25T10:42:04.076Z,-1.99
2019-01-25T10:47:06.138Z,-1.90
2019-01-25T10:52:09.146Z,-1.97
2019-01-25T10:57:11.185Z,-1.92
2019-01-25T11:02:32.825Z,-1.78
2019-01-25T11:07:34.908Z,-1.93
2019-01-25T11:12:37.418Z,-1.70
2019-01-25T11:17:39.499Z,-1.60
2019-01-25T11:22:41.514Z,-1.64
2019-01-25T11:27:44.620Z,-1.62
2019-01-25T11:32:47.146Z,-1.50
2019-01-25T11:37:49.162Z,-1.53
2019-01-25T11:42:51.632Z,-1.48
2019-01-25T11:47:54.106Z,-1.45
2019-01-25T11:52:56.255Z,-1.44
2019-01-25T11:57:58.725Z,-1.37
2019-01-25T12:03:00.737Z,-1.31
2019-01-25T12:08:24.067Z,-1.45
2019-01-25T12:13:26.138Z,-1.31
2019-01-25T12:18:28.560Z,-1.18
2019-01-25T12:23:30.601Z,-0.90
2019-01-25T12:28:32.718Z,-1.01
2019-01-25T12:33:35.206Z,-0.97
2019-01-25T12:38:37.232Z,-0.92
2019-01-25T12:43:39.316Z,-0.94
2019-01-25T12:48:41.344Z,-0.80
2019-01-25T12:53:55.760Z,-0.88
2019-01-25T12:58:57.893Z,-0.87
2019-01-25T13:03:59.994Z,-0.83
2019-01-25T13:09:04.392Z,-0.81
2019-01-25T13:14:06.473Z,-0.87
2019-01-25T13:19:08.554Z,-0.74
2019-01-25T13:24:10.755Z,-0.79
2019-01-25T13:29:12.860Z,-0.69
2019-01-25T13:34:14.934Z,-0.63
2019-01-25T13:39:17.040Z,-0.64
2019-01-25T13:44:19.071Z,-0.60
2019-01-25T13:49:21.171Z,-0.51
2019-01-25T13:54:23.279Z,-0.54
2019-01-25T13:59:25.432Z,-0.55
2019-01-25T14:04:27.545Z,-0.54
2019-01-25T14:09:29.603Z,-0.45
2019-01-25T14:19:47.999Z,-0.33
2019-01-25T14:24:51.001Z,-0.30
2019-01-25T14:29:53.021Z,-0.30
2019-01-25T14:34:55.136Z,-0.32
2019-01-25T14:39:57.414Z,-0.23
2019-01-25T14:44:59.523Z,-0.23
2019-01-25T14:50:01.552Z,-0.18
2019-01-25T14:55:04.410Z,-0.23
2019-01-25T15:00:07.740Z,-0.24
2019-01-25T15:05:14.854Z,-0.21
2019-01-25T15:10:19.393Z,-0.29
2019-01-25T15:15:21.477Z,-0.27
2019-01-25T15:20:26.068Z,-0.22
2019-01-25T15:25:28.117Z,-0.19
2019-01-25T15:30:43.907Z,-0.17
2019-01-25T15:35:46.231Z,-0.13
2019-01-25T15:40:48.392Z,-0.23
2019-01-25T15:45:50.479Z,-0.16
2019-01-25T15:50:52.520Z,-0.15
2019-01-25T15:55:54.623Z,-0.06
2019-01-25T16:00:56.681Z,0.00
2019-01-25T16:05:58.697Z,0.06
2019-01-25T16:11:00.819Z,0.05
2019-01-25T16:16:03.060Z,0.10
2019-01-25T16:21:05.084Z,0.09
2019-01-25T16:26:07.221Z,0.07
2019-01-25T16:31:09.419Z,0.01
2019-01-25T16:36:11.516Z,0.05
2019-01-25T16:41:13.562Z,0.07
2019-01-25T16:46:15.664Z,0.06
2019-01-25T16:51:17.836Z,0.15
2019-01-25T16:56:19.870Z,0.28
2019-01-25T17:01:21.877Z,0.25
2019-01-25T17:06:23.899Z,0.38
2019-01-25T17:11:26.032Z,0.44
2019-01-25T17:16:28.378Z,0.46
2019-01-25T17:21:30.492Z,0.45
2019-01-25T17:26:32.597Z,0.42
2019-01-25T17:31:34.665Z,0.40
2019-01-25T17:36:36.773Z,0.37
2019-01-25T17:41:39.623Z,0.40
2019-01-25T17:46:41.681Z,0.41
2019-01-25T17:51:43.756Z,0.41
2019-01-25T17:56:45.839Z,0.40
2019-01-25T18:01:47.898Z,0.47
2019-01-25T18:06:49.893Z,0.41
2019-01-25T18:11:51.928Z,0.47
2019-01-25T18:16:53.984Z,0.55
2019-01-25T18:21:55.958Z,0.64
2019-01-25T18:26:58.003Z,0.61
2019-01-25T18:32:00.367Z,0.51
2019-01-25T18:37:02.486Z,0.44
2019-01-25T18:42:04.492Z,0.40
2019-01-25T18:47:06.477Z,0.37
2019-01-25T18:52:08.528Z,0.37
2019-01-25T18:57:10.540Z,0.32
2019-01-25T19:02:12.605Z,0.31
2019-01-25T19:07:14.618Z,0.28
2019-01-25T19:12:16.663Z,0.27
2019-01-25T19:17:18.714Z,0.27
2019-01-25T19:22:20.757Z,0.22
2019-01-25T19:27:22.798Z,0.16
2019-01-25T19:32:24.813Z,0.13
2019-01-25T19:37:26.887Z,0.09
2019-01-25T19:42:28.950Z,0.03
2019-01-25T19:47:31.029Z,-0.06
2019-01-25T19:52:33.150Z,-0.09
2019-01-25T19:57:35.241Z,-0.16
2019-01-25T20:02:37.275Z,-0.25
2019-01-25T20:07:39.290Z,-0.29
2019-01-25T20:12:41.876Z,-0.39
2019-01-25T20:17:43.995Z,-0.40
2019-01-25T20:22:46.041Z,-0.47
2019-01-25T20:28:09.354Z,-0.54
2019-01-25T20:33:11.471Z,-0.64
2019-01-25T20:38:13.587Z,-0.69
2019-01-25T20:43:15.985Z,-0.74
2019-01-25T20:48:18.021Z,-0.75
2019-01-25T20:53:20.128Z,-0.79
2019-01-25T20:58:22.661Z,-0.77
2019-01-25T21:03:24.651Z,-0.79
2019-01-25T21:08:26.735Z,-0.79
2019-01-25T21:13:28.922Z,-0.83
2019-01-25T21:18:30.980Z,-0.80
2019-01-25T21:23:33.037Z,-0.75
2019-01-25T21:28:35.036Z,-0.77
2019-01-25T21:33:37.074Z,-0.76
2019-01-25T21:38:39.146Z,-0.73
2019-01-25T21:43:41.226Z,-0.72
2019-01-25T21:48:43.239Z,-0.74
2019-01-25T21:53:45.330Z,-0.72
2019-01-25T21:58:47.668Z,-0.68
2019-01-25T22:03:49.648Z,-0.69
2019-01-25T22:08:51.708Z,-0.67
2019-01-25T22:13:53.771Z,-0.63
2019-01-25T22:18:55.855Z,-0.61
2019-01-25T22:23:57.887Z,-0.58
2019-01-25T22:28:59.879Z,-0.57
2019-01-25T22:34:01.911Z,-0.57
2019-01-25T22:39:46.432Z,-0.57
2019-01-25T22:45:08.095Z,-0.55
2019-01-25T22:50:14.228Z,-0.52
2019-01-25T22:55:17.594Z,-0.50
2019-01-25T23:01:01.919Z,-0.48
2019-01-25T23:06:42.869Z,-0.48
2019-01-25T23:11:44.969Z,-0.45
2019-01-25T23:16:47.180Z,-0.44
2019-01-25T23:21:50.363Z,-0.41
2019-01-25T23:26:53.442Z,-0.41
2019-01-25T23:31:55.439Z,-0.36
2019-01-25T23:36:57.496Z,-0.34
2019-01-25T23:41:59.766Z,-0.36
2019-01-25T23:47:01.790Z,-0.35
2019-01-25T23:52:04.021Z,-0.35
2019-01-25T23:57:06.128Z,-0.33
